Time,TemperatureF,DewpointF,PressureIn,WindDirection,WindDirectionDegrees,WindSpeedMPH,WindSpeedGustMPH,Humidity,HourlyPrecipIn,Conditions,Clouds,dailyrainin,SoftwareType,DateUTC
2013-01-10 00:07:00,37.4,28.6,30.47,North,-999,0.0,0.0,70,0.00,,,-99.99,FreeWX 2.04,2013-01-10 05:07:00,
2013-01-10 00:17:00,37.4,28.6,30.47,North,-999,0.0,0.0,70,0.00,,,-99.99,FreeWX 2.04,2013-01-10 05:17:00,
2013-01-10 00:27:00,37.0,28.2,30.47,North,-999,0.0,0.0,70,0.00,,,-99.99,FreeWX 2.04,2013-01-10 05:27:00,
2013-01-10 00:37:00,37.0,28.2,30.47,North,-999,0.0,0.0,70,0.00,,,-99.99,FreeWX 2.04,2013-01-10 05:37:00,
2013-01-10 00:47:00,36.9,28.0,30.47,North,-999,0.0,0.0,70,0.00,,,-99.99,FreeWX 2.04,2013-01-10 05:47:00,
2013-01-10 00:57:00,36.9,28.4,30.47,North,-999,0.0,0.0,71,0.00,,,-99.99,FreeWX 2.04,2013-01-10 05:57:00,
2013-01-10 01:07:00,36.7,28.2,30.47,North,-999,0.0,0.0,71,0.00,,,-99.99,FreeWX 2.04,2013-01-10 06:07:00,
2013-01-10 01:17:00,36.1,27.7,30.47,North,-999,0.0,0.0,71,0.00,,,-99.99,FreeWX 2.04,2013-01-10 06:17:00,
2013-01-10 01:27:00,36.1,27.7,30.47,North,-999,0.0,0.0,71,0.00,,,-99.99,FreeWX 2.04,2013-01-10 06:27:00,
2013-01-10 01:37:00,36.1,27.7,30.47,North,-999,0.0,0.0,71,0.00,,,-99.99,FreeWX 2.04,2013-01-10 06:37:00,
2013-01-10 01:47:00,36.1,27.7,30.47,North,-999,0.0,0.0,71,0.00,,,-99.99,FreeWX 2.04,2013-01-10 06:47:00,
2013-01-10 01:57:00,36.0,27.5,30.47,North,-999,0.0,0.0,71,0.00,,,-99.99,FreeWX 2.04,2013-01-10 06:57:00,
2013-01-10 02:07:00,36.1,28.0,30.47,North,-999,0.0,0.0,72,0.00,,,-99.99,FreeWX 2.04,2013-01-10 07:07:00,
2013-01-10 02:17:00,35.8,27.3,30.47,North,-999,0.0,0.0,71,0.00,,,-99.99,FreeWX 2.04,2013-01-10 07:17:00,
2013-01-10 02:27:00,35.6,27.1,30.47,North,-999,0.0,0.0,71,0.00,,,-99.99,FreeWX 2.04,2013-01-10 07:27:00,
2013-01-10 02:37:00,35.2,26.8,30.47,North,-999,0.0,0.0,71,0.00,,,-99.99,FreeWX 2.04,2013-01-10 07:37:00,
2013-01-10 02:47:00,35.1,26.6,30.47,North,-999,0.0,0.0,71,0.00,,,-99.99,FreeWX 2.04,2013-01-10 07:47:00,
2013-01-10 02:57:00,34.9,26.4,30.47,North,-999,0.0,0.0,71,0.00,,,-99.99,FreeWX 2.04,2013-01-10 07:57:00,
2013-01-10 03:07:00,34.9,26.8,30.47,North,-999,0.0,0.0,72,0.00,,,-99.99,FreeWX 2.04,2013-01-10 08:07:00,
2013-01-10 03:17:00,34.7,26.6,30.47,North,-999,0.0,0.0,72,0.00,,,-99.99,FreeWX 2.04,2013-01-10 08:17:00,
2013-01-10 03:27:00,34.9,26.8,30.47,North,-999,0.0,0.0,72,0.00,,,-99.99,FreeWX 2.04,2013-01-10 08:27:00,
2013-01-10 03:37:00,34.9,26.8,30.47,North,-999,0.0,0.0,72,0.00,,,-99.99,FreeWX 2.04,2013-01-10 08:37:00,
2013-01-10 03:47:00,34.7,26.6,30.47,North,-999,0.0,0.0,72,0.00,,,-99.99,FreeWX 2.04,2013-01-10 08:47:00,
2013-01-10 03:57:00,34.7,26.6,30.47,North,-999,0.0,0.0,72,0.00,,,-99.99,FreeWX 2.04,2013-01-10 08:57:00,
2013-01-10 04:07:00,34.5,26.8,30.47,North,-999,0.0,0.0,73,0.00,,,-99.99,FreeWX 2.04,2013-01-10 09:07:00,
2013-01-10 04:17:00,34.3,26.2,30.47,North,-999,0.0,0.0,72,0.00,,,-99.99,FreeWX 2.04,2013-01-10 09:17:00,
2013-01-10 04:27:00,34.2,26.1,30.47,North,-999,0.0,0.0,72,0.00,,,-99.99,FreeWX 2.04,2013-01-10 09:27:00,
2013-01-10 04:37:00,34.0,25.9,30.47,North,-999,0.0,0.0,72,0.00,,,-99.99,FreeWX 2.04,2013-01-10 09:37:00,
2013-01-10 04:47:00,33.6,25.5,30.47,North,-999,0.0,0.0,72,0.00,,,-99.99,FreeWX 2.04,2013-01-10 09:47:00,
2013-01-10 04:57:00,33.3,25.2,30.47,North,-999,0.0,0.0,72,0.00,,,-99.99,FreeWX 2.04,2013-01-10 09:57:00,
2013-01-10 05:07:00,32.9,24.8,30.47,North,-999,0.0,0.0,72,0.00,,,-99.99,FreeWX 2.04,2013-01-10 10:07:00,
2013-01-10 05:17:00,32.7,25.0,30.47,North,-999,0.0,0.0,73,0.00,,,-99.99,FreeWX 2.04,2013-01-10 10:17:00,
2013-01-10 05:27:00,32.7,25.0,30.47,North,-999,0.0,0.0,73,0.00,,,-99.99,FreeWX 2.04,2013-01-10 10:27:00,
2013-01-10 05:37:00,32.7,25.0,30.47,North,-999,0.0,0.0,73,0.00,,,-99.99,FreeWX 2.04,2013-01-10 10:37:00,
2013-01-10 05:47:00,32.7,25.0,30.47,North,-999,0.0,0.0,73,0.00,,,-99.99,FreeWX 2.04,2013-01-10 10:47:00,
2013-01-10 05:57:00,32.7,25.0,30.47,North,-999,0.0,0.0,73,0.00,,,-99.99,FreeWX 2.04,2013-01-10 10:57:00,
2013-01-10 06:07:00,32.4,24.6,30.47,North,-999,0.0,0.0,73,0.00,,,-99.99,FreeWX 2.04,2013-01-10 11:07:00,
2013-01-10 06:17:00,32.0,24.3,30.47,North,-999,0.0,0.0,73,0.00,,,-99.99,FreeWX 2.04,2013-01-10 11:17:00,
2013-01-10 06:27:00,31.8,24.1,30.47,North,-999,0.0,0.0,73,0.00,,,-99.99,FreeWX 2.04,2013-01-10 11:27:00,
2013-01-10 06:37:00,31.6,24.1,30.47,North,-999,0.0,0.0,73,0.00,,,-99.99,FreeWX 2.04,2013-01-10 11:37:00,
2013-01-10 06:47:00,31.3,23.7,30.47,North,-999,0.0,0.0,73,0.00,,,-99.99,FreeWX 2.04,2013-01-10 11:47:00,
2013-01-10 06:57:00,31.3,23.7,30.47,North,-999,0.0,0.0,73,0.00,,,-99.99,FreeWX 2.04,2013-01-10 11:57:00,
2013-01-10 07:07:00,31.3,23.7,30.47,North,-999,0.0,0.0,73,0.00,,,-99.99,FreeWX 2.04,2013-01-10 12:07:00,
2013-01-10 07:18:00,31.3,23.9,30.47,North,-999,0.0,0.0,74,0.00,,,-99.99,FreeWX 2.04,2013-01-10 12:18:00,
2013-01-10 07:28:00,31.5,24.1,30.47,North,-999,0.0,0.0,74,0.00,,,-99.99,FreeWX 2.04,2013-01-10 12:28:00,
2013-01-10 07:38:00,31.8,24.4,30.47,North,-999,0.0,0.0,74,0.00,,,-99.99,FreeWX 2.04,2013-01-10 12:38:00,
2013-01-10 07:48:00,32.2,24.8,30.47,North,-999,0.0,0.0,74,0.00,,,-99.99,FreeWX 2.04,2013-01-10 12:48:00,
2013-01-10 07:58:00,32.2,24.8,30.47,North,-999,0.0,0.0,74,0.00,,,-99.99,FreeWX 2.04,2013-01-10 12:58:00,
2013-01-10 08:08:00,32.5,25.5,30.47,North,-999,0.0,0.0,75,0.00,,,-99.99,FreeWX 2.04,2013-01-10 13:08:00,
2013-01-10 08:18:00,32.5,25.5,30.50,North,-999,0.0,0.0,75,0.00,,,-99.99,FreeWX 2.04,2013-01-10 13:18:00,
2013-01-10 08:28:00,33.1,26.1,30.50,North,-999,0.0,0.0,75,0.00,,,-99.99,FreeWX 2.04,2013-01-10 13:28:00,
2013-01-10 08:38:00,33.1,26.1,30.50,North,-999,0.0,0.0,75,0.00,,,-99.99,FreeWX 2.04,2013-01-10 13:38:00,
2013-01-10 08:48:00,33.3,26.2,30.50,North,-999,0.0,0.0,75,0.00,,,-99.99,FreeWX 2.04,2013-01-10 13:48:00,
2013-01-10 08:58:00,33.8,26.8,30.50,North,-999,0.0,0.0,75,0.00,,,-99.99,FreeWX 2.04,2013-01-10 13:58:00,
2013-01-10 09:08:00,33.8,26.8,30.47,North,-999,0.0,0.0,75,0.00,,,-99.99,FreeWX 2.04,2013-01-10 14:08:00,
2013-01-10 09:18:00,33.8,26.8,30.47,North,-999,0.0,0.0,75,0.00,,,-99.99,FreeWX 2.04,2013-01-10 14:18:00,
2013-01-10 09:28:00,34.2,27.3,30.47,North,-999,0.0,3.6,76,0.00,,,-99.99,FreeWX 2.04,2013-01-10 14:28:00,
2013-01-10 09:38:00,35.2,28.8,30.47,NNW,337,2.0,4.9,77,0.00,,,-99.99,FreeWX 2.04,2013-01-10 14:38:00,
2013-01-10 09:48:00,36.1,30.0,30.47,North,-999,0.0,4.0,78,0.00,,,-99.99,FreeWX 2.04,2013-01-10 14:48:00,
2013-01-10 09:58:00,36.9,30.7,30.47,North,350,1.0,4.0,78,0.00,,,-99.99,FreeWX 2.04,2013-01-10 14:58:00,
2013-01-10 10:08:00,37.6,31.3,30.47,WNW,293,2.0,5.8,78,0.00,,,-99.99,FreeWX 2.04,2013-01-10 15:08:00,
2013-01-10 10:18:00,38.3,32.4,30.47,NW,310,2.0,5.4,79,0.00,,,-99.99,FreeWX 2.04,2013-01-10 15:18:00,
2013-01-10 10:28:00,38.7,32.4,30.47,West,261,2.0,4.9,78,0.00,,,-99.99,FreeWX 2.04,2013-01-10 15:28:00,
2013-01-10 10:38:00,39.4,33.4,30.47,North,-999,0.0,4.0,79,0.00,,,-99.99,FreeWX 2.04,2013-01-10 15:38:00,
2013-01-10 10:48:00,39.7,33.4,30.47,NNW,346,1.0,4.0,78,0.00,,,-99.99,FreeWX 2.04,2013-01-10 15:48:00,
2013-01-10 10:58:00,39.9,33.6,30.47,South,183,2.0,3.6,78,0.00,,,-99.99,FreeWX 2.04,2013-01-10 15:58:00,
2013-01-10 11:08:00,40.5,34.2,30.44,South,179,2.0,5.4,78,0.00,,,-99.99,FreeWX 2.04,2013-01-10 16:08:00,
2013-01-10 11:18:00,40.8,34.5,30.44,South,178,2.0,7.4,78,0.00,,,-99.99,FreeWX 2.04,2013-01-10 16:18:00,
2013-01-10 11:28:00,40.6,34.0,30.44,South,172,3.0,5.8,77,0.00,,,-99.99,FreeWX 2.04,2013-01-10 16:28:00,
2013-01-10 11:38:00,41.0,34.3,30.44,South,186,2.0,6.3,77,0.00,,,-99.99,FreeWX 2.04,2013-01-10 16:38:00,
2013-01-10 11:48:00,41.5,34.9,30.44,North,-999,0.0,4.5,77,0.00,,,-99.99,FreeWX 2.04,2013-01-10 16:48:00,
2013-01-10 11:58:00,41.5,34.5,30.44,NNW,333,1.0,5.4,76,0.00,,,-99.99,FreeWX 2.04,2013-01-10 16:58:00,
2013-01-10 12:08:00,41.4,34.3,30.41,NNW,341,2.0,6.3,76,0.00,,,-99.99,FreeWX 2.04,2013-01-10 17:08:00,
2013-01-10 12:18:00,41.5,34.2,30.41,South,179,2.0,5.8,75,0.00,,,-99.99,FreeWX 2.04,2013-01-10 17:18:00,
2013-01-10 12:28:00,41.7,34.3,30.41,North,-999,0.0,3.6,75,0.00,,,-99.99,FreeWX 2.04,2013-01-10 17:28:00,
2013-01-10 12:38:00,42.1,34.3,30.41,North,-999,0.0,4.0,74,0.00,,,-99.99,FreeWX 2.04,2013-01-10 17:38:00,
2013-01-10 12:48:00,42.1,34.3,30.41,SSE,163,3.0,4.0,74,0.00,,,-99.99,FreeWX 2.04,2013-01-10 17:48:00,
2013-01-10 12:58:00,42.1,33.8,30.41,South,190,3.0,4.9,72,0.00,,,-99.99,FreeWX 2.04,2013-01-10 17:58:00,
2013-01-10 13:08:00,42.1,33.4,30.39,South,188,3.0,5.8,71,0.00,,,-99.99,FreeWX 2.04,2013-01-10 18:08:00,
2013-01-10 13:18:00,41.9,32.9,30.39,South,191,4.0,5.8,70,0.00,,,-99.99,FreeWX 2.04,2013-01-10 18:18:00,
2013-01-10 13:28:00,42.3,33.3,30.39,SSW,200,3.0,5.4,70,0.00,,,-99.99,FreeWX 2.04,2013-01-10 18:28:00,
2013-01-10 13:38:00,43.0,34.2,30.39,North,355,2.0,5.8,71,0.00,,,-99.99,FreeWX 2.04,2013-01-10 18:38:00,
2013-01-10 13:48:00,43.7,34.9,30.36,NNW,347,1.0,7.4,71,0.00,,,-99.99,FreeWX 2.04,2013-01-10 18:48:00,
2013-01-10 13:58:00,43.5,33.6,30.36,South,190,4.0,7.8,68,0.00,,,-99.99,FreeWX 2.04,2013-01-10 18:58:00,
2013-01-10 14:08:00,44.2,34.3,30.36,North,-999,0.0,4.9,68,0.00,,,-99.99,FreeWX 2.04,2013-01-10 19:08:00,
2013-01-10 14:18:00,44.6,34.3,30.36,NNW,328,3.0,6.3,67,0.00,,,-99.99,FreeWX 2.04,2013-01-10 19:18:00,
2013-01-10 14:28:00,44.4,33.4,30.36,SW,218,2.0,6.3,65,0.00,,,-99.99,FreeWX 2.04,2013-01-10 19:28:00,
2013-01-10 14:38:00,44.6,33.3,30.36,North,-999,0.0,4.0,64,0.00,,,-99.99,FreeWX 2.04,2013-01-10 19:38:00,
2013-01-10 14:48:00,44.8,33.4,30.36,North,-999,0.0,3.6,64,0.00,,,-99.99,FreeWX 2.04,2013-01-10 19:48:00,
2013-01-10 14:58:00,44.8,32.9,30.36,SW,215,2.0,4.0,63,0.00,,,-99.99,FreeWX 2.04,2013-01-10 19:58:00,
2013-01-10 15:08:00,44.6,31.6,30.33,South,186,2.0,4.9,60,0.00,,,-99.99,FreeWX 2.04,2013-01-10 20:08:00,
2013-01-10 15:18:00,44.6,31.1,30.33,South,182,2.0,4.5,59,0.00,,,-99.99,FreeWX 2.04,2013-01-10 20:18:00,
2013-01-10 15:28:00,44.8,31.8,30.33,North,-999,0.0,4.9,60,0.00,,,-99.99,FreeWX 2.04,2013-01-10 20:28:00,
2013-01-10 15:38:00,45.5,32.4,30.33,North,351,1.0,4.5,60,0.00,,,-99.99,FreeWX 2.04,2013-01-10 20:38:00,
2013-01-10 15:48:00,45.7,32.2,30.33,NNW,346,2.0,5.8,59,0.00,,,-99.99,FreeWX 2.04,2013-01-10 20:48:00,
2013-01-10 15:58:00,45.9,32.4,30.33,NW,305,1.0,5.4,59,0.00,,,-99.99,FreeWX 2.04,2013-01-10 20:58:00,
2013-01-10 16:08:00,46.0,32.5,30.33,North,-999,0.0,3.6,59,0.00,,,-99.99,FreeWX 2.04,2013-01-10 21:08:00,
2013-01-10 16:18:00,45.9,31.5,30.33,WNW,301,2.0,4.9,57,0.00,,,-99.99,FreeWX 2.04,2013-01-10 21:18:00,
2013-01-10 16:28:00,45.9,31.5,30.33,North,-999,0.0,4.0,57,0.00,,,-99.99,FreeWX 2.04,2013-01-10 21:28:00,
2013-01-10 16:38:00,45.9,31.5,30.33,North,-999,0.0,2.7,57,0.00,,,-99.99,FreeWX 2.04,2013-01-10 21:38:00,
2013-01-10 16:48:00,45.7,31.3,30.33,North,-999,0.0,4.0,57,0.00,,,-99.99,FreeWX 2.04,2013-01-10 21:48:00,
2013-01-10 16:58:00,45.5,30.7,30.33,SSW,203,1.0,3.6,56,0.00,,,-99.99,FreeWX 2.04,2013-01-10 21:58:00,
2013-01-10 17:08:00,45.5,30.7,30.33,North,-999,0.0,2.7,56,0.00,,,-99.99,FreeWX 2.04,2013-01-10 22:08:00,
2013-01-10 17:18:00,45.5,30.2,30.30,SSW,193,1.0,4.0,55,0.00,,,-99.99,FreeWX 2.04,2013-01-10 22:18:00,
2013-01-10 17:28:00,45.3,29.7,30.30,South,173,3.0,4.9,54,0.00,,,-99.99,FreeWX 2.04,2013-01-10 22:28:00,
2013-01-10 17:38:00,45.1,30.0,30.30,North,-999,0.0,4.5,55,0.00,,,-99.99,FreeWX 2.04,2013-01-10 22:38:00,
2013-01-10 17:48:00,45.0,29.8,30.30,North,-999,0.0,0.0,55,0.00,,,-99.99,FreeWX 2.04,2013-01-10 22:48:00,
2013-01-10 17:58:00,45.0,29.8,30.30,North,-999,0.0,0.0,55,0.00,,,-99.99,FreeWX 2.04,2013-01-10 22:58:00,
2013-01-10 18:08:00,45.0,30.2,30.30,South,173,2.0,3.6,56,0.00,,,-99.99,FreeWX 2.04,2013-01-10 23:08:00,
2013-01-10 18:18:00,45.0,30.2,30.30,NNW,333,2.0,5.4,56,0.00,,,-99.99,FreeWX 2.04,2013-01-10 23:18:00,
2013-01-10 18:28:00,45.1,30.4,30.30,NNW,347,3.0,5.4,56,0.00,,,-99.99,FreeWX 2.04,2013-01-10 23:28:00,
2013-01-10 18:38:00,45.1,30.0,30.30,WNW,299,2.0,5.4,55,0.00,,,-99.99,FreeWX 2.04,2013-01-10 23:38:00,
2013-01-10 18:48:00,44.8,29.1,30.27,North,-999,0.0,4.0,54,0.00,,,-99.99,FreeWX 2.04,2013-01-10 23:48:00,
2013-01-10 18:58:00,44.2,28.2,30.27,NNW,342,1.0,4.5,53,0.00,,,-99.99,FreeWX 2.04,2013-01-10 23:58:00,
2013-01-10 19:09:00,44.2,29.5,30.27,WSW,243,2.0,6.3,56,0.00,,,-99.99,FreeWX 2.04,2013-01-11 00:09:00,
2013-01-10 19:19:00,44.4,29.7,30.27,North,350,2.0,4.9,56,0.00,,,-99.99,FreeWX 2.04,2013-01-11 00:19:00,
2013-01-10 19:29:00,44.2,29.1,30.27,NNW,348,2.0,5.4,55,0.00,,,-99.99,FreeWX 2.04,2013-01-11 00:29:00,
2013-01-10 19:39:00,44.2,29.1,30.27,North,-999,0.0,3.6,55,0.00,,,-99.99,FreeWX 2.04,2013-01-11 00:39:00,
2013-01-10 19:49:00,44.2,29.1,30.24,North,-999,0.0,0.0,55,0.00,,,-99.99,FreeWX 2.04,2013-01-11 00:49:00,
2013-01-10 19:59:00,43.9,28.8,30.24,North,-999,0.0,0.0,55,0.00,,,-99.99,FreeWX 2.04,2013-01-11 00:59:00,
2013-01-10 20:09:00,43.7,28.6,30.24,North,-999,0.0,0.0,55,0.00,,,-99.99,FreeWX 2.04,2013-01-11 01:09:00,
2013-01-10 20:19:00,43.7,29.1,30.24,North,-999,0.0,0.0,56,0.00,,,-99.99,FreeWX 2.04,2013-01-11 01:19:00,
2013-01-10 20:29:00,43.5,28.9,30.24,North,-999,0.0,0.0,56,0.00,,,-99.99,FreeWX 2.04,2013-01-11 01:29:00,
2013-01-10 20:39:00,43.3,28.8,30.24,North,-999,0.0,0.0,56,0.00,,,-99.99,FreeWX 2.04,2013-01-11 01:39:00,
2013-01-10 20:49:00,43.2,28.9,30.24,North,-999,0.0,0.0,57,0.00,,,-99.99,FreeWX 2.04,2013-01-11 01:49:00,
2013-01-10 20:59:00,42.8,28.6,30.24,North,-999,0.0,0.0,57,0.00,,,-99.99,FreeWX 2.04,2013-01-11 01:59:00,
2013-01-10 21:09:00,42.4,28.2,30.21,North,-999,0.0,0.0,57,0.00,,,-99.99,FreeWX 2.04,2013-01-11 02:09:00,
2013-01-10 21:19:00,42.1,28.8,30.21,North,-999,0.0,0.0,59,0.00,,,-99.99,FreeWX 2.04,2013-01-11 02:19:00,
2013-01-10 21:29:00,41.7,29.3,30.21,North,-999,0.0,0.0,61,0.00,,,-99.99,FreeWX 2.04,2013-01-11 02:29:00,
2013-01-10 21:39:00,41.5,29.1,30.21,North,-999,0.0,0.0,61,0.00,,,-99.99,FreeWX 2.04,2013-01-11 02:39:00,
2013-01-10 21:49:00,41.4,29.3,30.21,North,-999,0.0,0.0,62,0.00,,,-99.99,FreeWX 2.04,2013-01-11 02:49:00,
2013-01-10 21:59:00,41.2,29.1,30.21,North,-999,0.0,0.0,62,0.00,,,-99.99,FreeWX 2.04,2013-01-11 02:59:00,
2013-01-10 22:09:00,40.8,28.8,30.18,North,-999,0.0,0.0,62,0.00,,,-99.99,FreeWX 2.04,2013-01-11 03:09:00,
2013-01-10 22:19:00,41.0,29.3,30.18,North,-999,0.0,0.0,63,0.00,,,-99.99,FreeWX 2.04,2013-01-11 03:19:00,
2013-01-10 22:29:00,41.0,29.3,30.18,North,-999,0.0,0.0,63,0.00,,,-99.99,FreeWX 2.04,2013-01-11 03:29:00,
2013-01-10 22:39:00,40.8,29.7,30.18,North,-999,0.0,0.0,64,0.00,,,-99.99,FreeWX 2.04,2013-01-11 03:39:00,
2013-01-10 22:49:00,40.8,29.7,30.15,North,-999,0.0,0.0,64,0.00,,,-99.99,FreeWX 2.04,2013-01-11 03:49:00,
2013-01-10 22:59:00,40.6,29.5,30.15,North,-999,0.0,0.0,64,0.00,,,-99.99,FreeWX 2.04,2013-01-11 03:59:00,
2013-01-10 23:09:00,40.6,29.8,30.15,North,-999,0.0,0.0,65,0.00,,,-99.99,FreeWX 2.04,2013-01-11 04:09:00,
2013-01-10 23:19:00,40.6,29.8,30.15,North,-999,0.0,0.0,65,0.00,,,-99.99,FreeWX 2.04,2013-01-11 04:19:00,
2013-01-10 23:29:00,41.0,30.6,30.15,North,-999,0.0,0.0,66,0.00,,,-99.99,FreeWX 2.04,2013-01-11 04:29:00,
2013-01-10 23:39:00,41.0,30.6,30.15,North,-999,0.0,0.0,66,0.00,,,-99.99,FreeWX 2.04,2013-01-11 04:39:00,
2013-01-10 23:49:00,41.0,30.6,30.15,North,-999,0.0,0.0,66,0.00,,,-99.99,FreeWX 2.04,2013-01-11 04:49:00,
2013-01-10 23:59:00,40.6,30.2,30.15,North,-999,0.0,0.0,66,0.00,,,-99.99,FreeWX 2.04,2013-01-11 04:59:00,